X  Zatvori METAR podaci zračne luke     EDDK Cologne Bonn Airport
Temperatura
52°F Temperatura
50°F Točka rosišta
94% Vlaga



Vjetar
2 MPS
3 KM/S
1 M/S
2 Čvorovi



Tišina
S
Trenutna situacija

Vedro Vedro
Tlak zraka 1017.95 (hPa) - 30.06 (inHg)
Vidljivost 6 (milje) - 9.7 (km)
Zračna luka
Kôd zračne luke EDDK

Lokacija: Cologne Bonn Airport
Udaljenost: 56 (mi)

Metar:
EDDK 252250Z AUTO VRB02KT CAVOK 11/10 Q1018 NOSIG

Vrijeme: 2024-05-26 00:50 CEST